sensor_id;sensor_type;location;lat;lon;timestamp;pressure;altitude;pressure_sealevel;temperature;humidity
70053;BME280;57398;52.032;4.376;2023-04-25T00:00:33;101884.41;;;5.76;nan
70053;BME280;57398;52.032;4.376;2023-04-25T00:03:21;101902.13;;;5.71;nan
70053;BME280;57398;52.032;4.376;2023-04-25T00:06:12;101905.34;;;5.57;nan
70053;BME280;57398;52.032;4.376;2023-04-25T00:09:00;101931.91;;;5.65;nan
70053;BME280;57398;52.032;4.376;2023-04-25T00:11:48;101958.94;;;5.45;nan
70053;BME280;57398;52.032;4.376;2023-04-25T00:14:38;101963.31;;;5.53;nan
70053;BME280;57398;52.032;4.376;2023-04-25T00:17:26;101973.31;;;5.56;nan
70053;BME280;57398;52.032;4.376;2023-04-25T00:20:15;101984.41;;;5.56;nan
70053;BME280;57398;52.032;4.376;2023-04-25T00:23:03;101994.72;;;5.56;nan
70053;BME280;57398;52.032;4.376;2023-04-25T00:25:51;101995.09;;;5.61;nan
70053;BME280;57398;52.032;4.376;2023-04-25T00:28:39;101991.03;;;5.59;nan
70053;BME280;57398;52.032;4.376;2023-04-25T00:31:29;101991.53;;;5.62;nan
70053;BME280;57398;52.032;4.376;2023-04-25T00:34:17;101999.44;;;5.69;nan
70053;BME280;57398;52.032;4.376;2023-04-25T00:37:05;101995.56;;;5.65;nan
70053;BME280;57398;52.032;4.376;2023-04-25T00:39:54;102001.59;;;5.82;nan
70053;BME280;57398;52.032;4.376;2023-04-25T00:42:43;102004.31;;;5.80;nan
70053;BME280;57398;52.032;4.376;2023-04-25T00:45:36;102016.41;;;5.80;nan
70053;BME280;57398;52.032;4.376;2023-04-25T00:48:27;102025.25;;;5.77;nan
70053;BME280;57398;52.032;4.376;2023-04-25T00:51:18;102028.78;;;5.76;nan
70053;BME280;57398;52.032;4.376;2023-04-25T00:54:07;102035.56;;;5.77;nan
70053;BME280;57398;52.032;4.376;2023-04-25T00:56:55;102046.38;;;5.81;nan
70053;BME280;57398;52.032;4.376;2023-04-25T00:59:45;102045.06;;;5.77;nan
70053;BME280;57398;52.032;4.376;2023-04-25T01:02:34;102048.94;;;5.73;nan
70053;BME280;57398;52.032;4.376;2023-04-25T01:05:24;102045.22;;;5.75;nan
70053;BME280;57398;52.032;4.376;2023-04-25T01:08:13;102050.06;;;5.78;nan
70053;BME280;57398;52.032;4.376;2023-04-25T01:11:01;102044.75;;;5.80;nan
70053;BME280;57398;52.032;4.376;2023-04-25T01:13:50;102038.47;;;5.82;nan
70053;BME280;57398;52.032;4.376;2023-04-25T01:16:39;102023.81;;;5.83;nan
70053;BME280;57398;52.032;4.376;2023-04-25T01:19:28;102028.13;;;5.74;nan
70053;BME280;57398;52.032;4.376;2023-04-25T01:22:18;102031.19;;;5.70;nan
70053;BME280;57398;52.032;4.376;2023-04-25T01:25:08;102035.34;;;5.62;nan
70053;BME280;57398;52.032;4.376;2023-04-25T01:27:57;102041.66;;;5.68;nan
70053;BME280;57398;52.032;4.376;2023-04-25T01:30:46;102049.50;;;5.58;nan
70053;BME280;57398;52.032;4.376;2023-04-25T01:33:35;102065.63;;;5.60;nan
70053;BME280;57398;52.032;4.376;2023-04-25T01:36:23;102068.66;;;5.56;nan
70053;BME280;57398;52.032;4.376;2023-04-25T01:39:13;102075.59;;;5.55;nan
70053;BME280;57398;52.032;4.376;2023-04-25T01:42:02;102079.16;;;5.62;nan
70053;BME280;57398;52.032;4.376;2023-04-25T01:44:50;102093.97;;;5.60;nan
70053;BME280;57398;52.032;4.376;2023-04-25T01:47:39;102086.91;;;5.62;nan
70053;BME280;57398;52.032;4.376;2023-04-25T01:50:30;102103.88;;;5.73;nan
70053;BME280;57398;52.032;4.376;2023-04-25T01:53:18;102094.22;;;5.75;nan
70053;BME280;57398;52.032;4.376;2023-04-25T01:56:08;102095.03;;;5.76;nan
70053;BME280;57398;52.032;4.376;2023-04-25T01:58:57;102093.06;;;5.70;nan
70053;BME280;57398;52.032;4.376;2023-04-25T02:01:45;102101.13;;;5.75;nan
70053;BME280;57398;52.032;4.376;2023-04-25T02:04:33;102104.34;;;5.77;nan
70053;BME280;57398;52.032;4.376;2023-04-25T02:07:22;102107.31;;;5.82;nan
70053;BME280;57398;52.032;4.376;2023-04-25T02:10:10;102108.41;;;5.79;nan
70053;BME280;57398;52.032;4.376;2023-04-25T02:12:59;102104.34;;;5.77;nan
70053;BME280;57398;52.032;4.376;2023-04-25T02:15:47;102108.09;;;5.82;nan
70053;BME280;57398;52.032;4.376;2023-04-25T02:18:36;102110.69;;;5.82;nan
70053;BME280;57398;52.032;4.376;2023-04-25T02:21:25;102106.88;;;5.95;nan
70053;BME280;57398;52.032;4.376;2023-04-25T02:24:14;102107.69;;;5.95;nan
70053;BME280;57398;52.032;4.376;2023-04-25T02:27:02;102116.72;;;5.99;nan
70053;BME280;57398;52.032;4.376;2023-04-25T02:29:51;102114.47;;;5.96;nan
70053;BME280;57398;52.032;4.376;2023-04-25T02:32:40;102116.59;;;6.01;nan
70053;BME280;57398;52.032;4.376;2023-04-25T02:35:28;102119.31;;;5.99;nan
70053;BME280;57398;52.032;4.376;2023-04-25T02:38:16;102124.16;;;6.02;nan
70053;BME280;57398;52.032;4.376;2023-04-25T02:41:05;102123.34;;;6.02;nan
70053;BME280;57398;52.032;4.376;2023-04-25T02:43:53;102112.38;;;6.00;nan
70053;BME280;57398;52.032;4.376;2023-04-25T02:46:43;102121.94;;;6.07;nan
70053;BME280;57398;52.032;4.376;2023-04-25T02:49:31;102121.41;;;6.04;nan
70053;BME280;57398;52.032;4.376;2023-04-25T02:52:19;102114.47;;;6.04;nan
70053;BME280;57398;52.032;4.376;2023-04-25T02:55:08;102119.97;;;6.01;nan
70053;BME280;57398;52.032;4.376;2023-04-25T02:57:57;102118.84;;;6.04;nan
70053;BME280;57398;52.032;4.376;2023-04-25T03:00:45;102119.81;;;6.03;nan
70053;BME280;57398;52.032;4.376;2023-04-25T03:03:35;102112.72;;;6.05;nan
70053;BME280;57398;52.032;4.376;2023-04-25T03:06:24;102117.53;;;6.00;nan
70053;BME280;57398;52.032;4.376;2023-04-25T03:09:12;102127.19;;;5.98;nan
70053;BME280;57398;52.032;4.376;2023-04-25T03:12:00;102124.00;;;5.96;nan
70053;BME280;57398;52.032;4.376;2023-04-25T03:14:48;102127.03;;;5.99;nan
70053;BME280;57398;52.032;4.376;2023-04-25T03:17:36;102126.09;;;6.00;nan
70053;BME280;57398;52.032;4.376;2023-04-25T03:20:26;102119.97;;;6.01;nan
70053;BME280;57398;52.032;4.376;2023-04-25T03:23:14;102121.22;;;5.97;nan
70053;BME280;57398;52.032;4.376;2023-04-25T03:26:02;102126.09;;;6.00;nan
70053;BME280;57398;52.032;4.376;2023-04-25T03:28:51;102130.63;;;6.06;nan
70053;BME280;57398;52.032;4.376;2023-04-25T03:31:39;102131.56;;;5.97;nan
70053;BME280;57398;52.032;4.376;2023-04-25T03:34:27;102138.69;;;6.03;nan
70053;BME280;57398;52.032;4.376;2023-04-25T03:37:16;102143.69;;;6.05;nan
70053;BME280;57398;52.032;4.376;2023-04-25T03:40:06;102142.53;;;5.99;nan
70053;BME280;57398;52.032;4.376;2023-04-25T03:42:54;102143.00;;;5.95;nan
70053;BME280;57398;52.032;4.376;2023-04-25T03:45:42;102141.88;;;5.97;nan
70053;BME280;57398;52.032;4.376;2023-04-25T03:48:30;102140.91;;;5.98;nan
70053;BME280;57398;52.032;4.376;2023-04-25T03:51:19;102138.63;;;5.95;nan
70053;BME280;57398;52.032;4.376;2023-04-25T03:54:08;102146.66;;;5.92;nan
70053;BME280;57398;52.032;4.376;2023-04-25T03:56:56;102144.75;;;5.94;nan
70053;BME280;57398;52.032;4.376;2023-04-25T03:59:45;102140.03;;;5.90;nan
70053;BME280;57398;52.032;4.376;2023-04-25T04:02:33;102146.50;;;5.94;nan
70053;BME280;57398;52.032;4.376;2023-04-25T04:05:23;102146.31;;;5.87;nan
70053;BME280;57398;52.032;4.376;2023-04-25T04:08:11;102149.69;;;5.87;nan
70053;BME280;57398;52.032;4.376;2023-04-25T04:11:01;102159.03;;;5.88;nan
70053;BME280;57398;52.032;4.376;2023-04-25T04:13:49;102160.16;;;5.86;nan
70053;BME280;57398;52.032;4.376;2023-04-25T04:16:38;102166.28;;;5.85;nan
70053;BME280;57398;52.032;4.376;2023-04-25T04:19:26;102160.69;;;5.90;nan
70053;BME280;57398;52.032;4.376;2023-04-25T04:22:14;102155.00;;;5.86;nan
70053;BME280;57398;52.032;4.376;2023-04-25T04:25:03;102158.41;;;5.86;nan
70053;BME280;57398;52.032;4.376;2023-04-25T04:27:54;102152.88;;;5.81;nan
70053;BME280;57398;52.032;4.376;2023-04-25T04:30:42;102147.84;;;5.72;nan
70053;BME280;57398;52.032;4.376;2023-04-25T04:33:32;102158.69;;;5.75;nan
70053;BME280;57398;52.032;4.376;2023-04-25T04:36:21;102162.91;;;5.58;nan
70053;BME280;57398;52.032;4.376;2023-04-25T04:39:09;102176.47;;;5.60;nan
70053;BME280;57398;52.032;4.376;2023-04-25T04:41:58;102170.00;;;5.56;nan
70053;BME280;57398;52.032;4.376;2023-04-25T04:44:49;102183.72;;;5.57;nan
70053;BME280;57398;52.032;4.376;2023-04-25T04:47:41;102185.06;;;5.69;nan
70053;BME280;57398;52.032;4.376;2023-04-25T04:50:29;102189.56;;;5.67;nan
70053;BME280;57398;52.032;4.376;2023-04-25T04:53:19;102193.25;;;5.64;nan
70053;BME280;57398;52.032;4.376;2023-04-25T04:56:07;102191.94;;;5.60;nan
70053;BME280;57398;52.032;4.376;2023-04-25T04:58:55;102202.09;;;5.62;nan
70053;BME280;57398;52.032;4.376;2023-04-25T05:01:45;102203.72;;;5.63;nan
70053;BME280;57398;52.032;4.376;2023-04-25T05:04:33;102179.25;;;5.41;nan
70053;BME280;57398;52.032;4.376;2023-04-25T05:07:21;102210.75;;;5.53;nan
70053;BME280;57398;52.032;4.376;2023-04-25T05:10:10;102223.56;;;5.44;nan
70053;BME280;57398;52.032;4.376;2023-04-25T05:12:58;102228.72;;;5.44;nan
70053;BME280;57398;52.032;4.376;2023-04-25T05:15:46;102238.00;;;5.37;nan
70053;BME280;57398;52.032;4.376;2023-04-25T05:18:36;102237.28;;;5.27;nan
70053;BME280;57398;52.032;4.376;2023-04-25T05:21:24;102240.22;;;5.14;nan
70053;BME280;57398;52.032;4.376;2023-04-25T05:24:12;102258.13;;;5.16;nan
70053;BME280;57398;52.032;4.376;2023-04-25T05:27:01;102263.50;;;5.22;nan
70053;BME280;57398;52.032;4.376;2023-04-25T05:29:49;102268.22;;;5.27;nan
70053;BME280;57398;52.032;4.376;2023-04-25T05:32:38;102259.06;;;5.33;nan
70053;BME280;57398;52.032;4.376;2023-04-25T05:35:28;102263.91;;;5.36;nan
70053;BME280;57398;52.032;4.376;2023-04-25T05:38:17;102272.53;;;5.44;nan
70053;BME280;57398;52.032;4.376;2023-04-25T05:41:06;102289.22;;;5.58;nan
70053;BME280;57398;52.032;4.376;2023-04-25T05:43:54;102268.78;;;5.57;nan
70053;BME280;57398;52.032;4.376;2023-04-25T05:46:44;102275.22;;;5.61;nan
70053;BME280;57398;52.032;4.376;2023-04-25T05:49:32;102274.63;;;5.67;nan
70053;BME280;57398;52.032;4.376;2023-04-25T05:52:21;102276.78;;;5.54;nan
70053;BME280;57398;52.032;4.376;2023-04-25T05:55:09;102278.72;;;5.34;nan
70053;BME280;57398;52.032;4.376;2023-04-25T05:57:57;102286.50;;;5.24;nan
70053;BME280;57398;52.032;4.376;2023-04-25T06:00:46;102289.75;;;5.26;nan
70053;BME280;57398;52.032;4.376;2023-04-25T06:03:34;102300.59;;;5.30;nan
70053;BME280;57398;52.032;4.376;2023-04-25T06:06:22;102293.66;;;5.30;nan
70053;BME280;57398;52.032;4.376;2023-04-25T06:09:14;102290.19;;;5.21;nan
70053;BME280;57398;52.032;4.376;2023-04-25T06:12:04;102307.66;;;5.28;nan
70053;BME280;57398;52.032;4.376;2023-04-25T06:14:52;102295.56;;;5.28;nan
70053;BME280;57398;52.032;4.376;2023-04-25T06:17:41;102299.97;;;5.36;nan
70053;BME280;57398;52.032;4.376;2023-04-25T06:20:29;102289.75;;;5.44;nan
70053;BME280;57398;52.032;4.376;2023-04-25T06:23:17;102300.28;;;5.51;nan
70053;BME280;57398;52.032;4.376;2023-04-25T06:26:07;102304.63;;;5.50;nan
70053;BME280;57398;52.032;4.376;2023-04-25T06:28:55;102306.69;;;5.64;nan
70053;BME280;57398;52.032;4.376;2023-04-25T06:31:43;102308.22;;;5.75;nan
70053;BME280;57398;52.032;4.376;2023-04-25T06:34:31;102314.50;;;5.73;nan
70053;BME280;57398;52.032;4.376;2023-04-25T06:37:20;102318.22;;;5.78;nan
70053;BME280;57398;52.032;4.376;2023-04-25T06:40:08;102321.16;;;5.83;nan
70053;BME280;57398;52.032;4.376;2023-04-25T06:42:58;102325.06;;;5.87;nan
70053;BME280;57398;52.032;4.376;2023-04-25T06:45:47;102329.78;;;5.92;nan
70053;BME280;57398;52.032;4.376;2023-04-25T06:48:35;102326.66;;;5.88;nan
70053;BME280;57398;52.032;4.376;2023-04-25T06:51:23;102326.78;;;5.97;nan
70053;BME280;57398;52.032;4.376;2023-04-25T06:54:15;102333.72;;;5.96;nan
70053;BME280;57398;52.032;4.376;2023-04-25T06:57:04;102334.50;;;5.97;nan
70053;BME280;57398;52.032;4.376;2023-04-25T06:59:56;102335.72;;;6.11;nan
70053;BME280;57398;52.032;4.376;2023-04-25T07:02:46;102337.41;;;6.46;nan
70053;BME280;57398;52.032;4.376;2023-04-25T07:05:36;102340.06;;;6.70;nan
70053;BME280;57398;52.032;4.376;2023-04-25T07:08:25;102342.19;;;6.75;nan
70053;BME280;57398;52.032;4.376;2023-04-25T07:11:13;102335.28;;;6.84;nan
70053;BME280;57398;52.032;4.376;2023-04-25T07:14:01;102330.00;;;6.51;nan
70053;BME280;57398;52.032;4.376;2023-04-25T07:16:50;102331.00;;;6.32;nan
70053;BME280;57398;52.032;4.376;2023-04-25T07:19:39;102332.31;;;6.28;nan
70053;BME280;57398;52.032;4.376;2023-04-25T07:22:27;102327.78;;;6.30;nan
70053;BME280;57398;52.032;4.376;2023-04-25T07:25:16;102324.38;;;6.64;nan
70053;BME280;57398;52.032;4.376;2023-04-25T07:28:04;102319.69;;;6.59;nan
70053;BME280;57398;52.032;4.376;2023-04-25T07:30:52;102315.19;;;6.61;nan
70053;BME280;57398;52.032;4.376;2023-04-25T07:33:42;102306.84;;;6.76;nan
70053;BME280;57398;52.032;4.376;2023-04-25T07:36:30;102306.69;;;6.77;nan
70053;BME280;57398;52.032;4.376;2023-04-25T07:39:18;102305.31;;;7.07;nan
70053;BME280;57398;52.032;4.376;2023-04-25T07:42:06;102285.47;;;7.24;nan
70053;BME280;57398;52.032;4.376;2023-04-25T07:44:55;102268.66;;;7.12;nan
70053;BME280;57398;52.032;4.376;2023-04-25T07:47:43;102241.19;;;7.03;nan
70053;BME280;57398;52.032;4.376;2023-04-25T07:50:32;102263.59;;;6.78;nan
70053;BME280;57398;52.032;4.376;2023-04-25T07:53:21;102232.13;;;6.74;nan
70053;BME280;57398;52.032;4.376;2023-04-25T07:56:09;102258.78;;;7.07;nan
70053;BME280;57398;52.032;4.376;2023-04-25T07:58:57;102262.03;;;7.67;nan
70053;BME280;57398;52.032;4.376;2023-04-25T08:01:46;102143.47;;;7.14;nan
70053;BME280;57398;52.032;4.376;2023-04-25T08:04:34;102115.75;;;7.08;nan
70053;BME280;57398;52.032;4.376;2023-04-25T08:07:24;102119.28;;;7.07;nan
70053;BME280;57398;52.032;4.376;2023-04-25T08:10:12;102113.13;;;7.33;nan
70053;BME280;57398;52.032;4.376;2023-04-25T08:13:00;102154.47;;;7.89;nan
70053;BME280;57398;52.032;4.376;2023-04-25T08:15:49;102138.22;;;8.11;nan
70053;BME280;57398;52.032;4.376;2023-04-25T08:18:37;102118.69;;;7.53;nan
70053;BME280;57398;52.032;4.376;2023-04-25T08:21:25;102097.13;;;7.29;nan
70053;BME280;57398;52.032;4.376;2023-04-25T08:24:15;102049.69;;;7.53;nan
70053;BME280;57398;52.032;4.376;2023-04-25T08:27:04;101560.41;;;7.66;nan
70053;BME280;57398;52.032;4.376;2023-04-25T08:29:53;101570.75;;;7.66;nan
70053;BME280;57398;52.032;4.376;2023-04-25T08:32:41;101573.06;;;7.02;nan
70053;BME280;57398;52.032;4.376;2023-04-25T08:35:29;101599.28;;;6.76;nan
70053;BME280;57398;52.032;4.376;2023-04-25T08:38:19;101593.22;;;7.21;nan
70053;BME280;57398;52.032;4.376;2023-04-25T08:41:11;101602.69;;;7.29;nan
70053;BME280;57398;52.032;4.376;2023-04-25T08:44:00;101605.91;;;7.31;nan
70053;BME280;57398;52.032;4.376;2023-04-25T08:46:52;101596.88;;;7.42;nan
70053;BME280;57398;52.032;4.376;2023-04-25T08:49:43;101600.78;;;8.18;nan
70053;BME280;57398;52.032;4.376;2023-04-25T08:52:37;101595.25;;;9.49;nan
70053;BME280;57398;52.032;4.376;2023-04-25T08:55:26;101572.97;;;8.64;nan
70053;BME280;57398;52.032;4.376;2023-04-25T08:58:18;101564.28;;;9.41;nan
70053;BME280;57398;52.032;4.376;2023-04-25T09:01:06;101547.25;;;8.62;nan
70053;BME280;57398;52.032;4.376;2023-04-25T09:03:54;101490.00;;;8.50;nan
70053;BME280;57398;52.032;4.376;2023-04-25T09:06:42;101492.53;;;8.72;nan
70053;BME280;57398;52.032;4.376;2023-04-25T09:09:30;101504.72;;;9.13;nan
70053;BME280;57398;52.032;4.376;2023-04-25T09:12:19;101513.34;;;8.85;nan
70053;BME280;57398;52.032;4.376;2023-04-25T09:15:11;101515.94;;;8.85;nan
70053;BME280;57398;52.032;4.376;2023-04-25T09:18:06;101527.59;;;8.74;nan
70053;BME280;57398;52.032;4.376;2023-04-25T09:20:55;101530.22;;;9.57;nan
70053;BME280;57398;52.032;4.376;2023-04-25T09:23:48;101541.47;;;9.30;nan
70053;BME280;57398;52.032;4.376;2023-04-25T09:26:38;101559.50;;;9.03;nan
70053;BME280;57398;52.032;4.376;2023-04-25T09:29:30;101568.94;;;8.61;nan
70053;BME280;57398;52.032;4.376;2023-04-25T09:32:21;101573.25;;;8.75;nan
70053;BME280;57398;52.032;4.376;2023-04-25T09:35:09;101581.44;;;8.36;nan
70053;BME280;57398;52.032;4.376;2023-04-25T09:37:58;101593.97;;;8.54;nan
70053;BME280;57398;52.032;4.376;2023-04-25T09:40:47;101574.13;;;8.18;nan
70053;BME280;57398;52.032;4.376;2023-04-25T09:43:36;101572.16;;;8.63;nan
70053;BME280;57398;52.032;4.376;2023-04-25T09:46:25;101565.44;;;8.26;nan
70053;BME280;57398;52.032;4.376;2023-04-25T09:49:14;101571.84;;;7.72;nan
70053;BME280;57398;52.032;4.376;2023-04-25T09:52:02;101576.72;;;7.67;nan
70053;BME280;57398;52.032;4.376;2023-04-25T09:54:52;101593.44;;;7.49;nan
70053;BME280;57398;52.032;4.376;2023-04-25T09:57:40;101587.53;;;8.07;nan
70053;BME280;57398;52.032;4.376;2023-04-25T10:00:29;101594.19;;;7.65;nan
70053;BME280;57398;52.032;4.376;2023-04-25T10:03:20;101589.22;;;8.79;nan
70053;BME280;57398;52.032;4.376;2023-04-25T10:06:18;101598.72;;;9.63;nan
70053;BME280;57398;52.032;4.376;2023-04-25T10:09:07;101610.81;;;9.14;nan
70053;BME280;57398;52.032;4.376;2023-04-25T10:11:56;101611.38;;;8.02;nan
70053;BME280;57398;52.032;4.376;2023-04-25T10:14:45;101608.31;;;7.47;nan
70053;BME280;57398;52.032;4.376;2023-04-25T10:17:35;101620.13;;;7.12;nan
70053;BME280;57398;52.032;4.376;2023-04-25T10:20:23;101613.88;;;7.21;nan
70053;BME280;57398;52.032;4.376;2023-04-25T10:23:13;101618.13;;;8.18;nan
70053;BME280;57398;52.032;4.376;2023-04-25T10:26:03;101617.81;;;8.92;nan
70053;BME280;57398;52.032;4.376;2023-04-25T10:28:55;101613.66;;;8.48;nan
70053;BME280;57398;52.032;4.376;2023-04-25T10:31:46;101638.22;;;9.02;nan
70053;BME280;57398;52.032;4.376;2023-04-25T10:34:39;101641.16;;;8.71;nan
70053;BME280;57398;52.032;4.376;2023-04-25T10:37:27;101637.06;;;8.83;nan
70053;BME280;57398;52.032;4.376;2023-04-25T10:40:21;101631.81;;;9.26;nan
70053;BME280;57398;52.032;4.376;2023-04-25T10:43:36;101645.59;;;8.55;nan
70053;BME280;57398;52.032;4.376;2023-04-25T10:46:27;101639.50;;;8.42;nan
70053;BME280;57398;52.032;4.376;2023-04-25T10:49:30;101636.53;;;7.79;nan
70053;BME280;57398;52.032;4.376;2023-04-25T10:52:25;101641.00;;;7.85;nan
70053;BME280;57398;52.032;4.376;2023-04-25T10:55:13;101646.03;;;8.80;nan
70053;BME280;57398;52.032;4.376;2023-04-25T10:58:03;101653.84;;;9.37;nan
70053;BME280;57398;52.032;4.376;2023-04-25T11:00:51;101653.97;;;8.21;nan
70053;BME280;57398;52.032;4.376;2023-04-25T11:03:43;101648.06;;;8.27;nan
70053;BME280;57398;52.032;4.376;2023-04-25T11:06:50;101653.03;;;8.07;nan
70053;BME280;57398;52.032;4.376;2023-04-25T11:09:44;101656.53;;;7.85;nan
70053;BME280;57398;52.032;4.376;2023-04-25T11:12:33;101657.34;;;8.22;nan
70053;BME280;57398;52.032;4.376;2023-04-25T11:15:23;101649.19;;;8.76;nan
70053;BME280;57398;52.032;4.376;2023-04-25T11:18:15;101654.28;;;8.69;nan
70053;BME280;57398;52.032;4.376;2023-04-25T11:21:03;101643.00;;;9.27;nan
70053;BME280;57398;52.032;4.376;2023-04-25T11:23:51;101639.41;;;8.99;nan
70053;BME280;57398;52.032;4.376;2023-04-25T11:26:41;101647.44;;;8.83;nan
70053;BME280;57398;52.032;4.376;2023-04-25T11:29:30;101633.38;;;8.92;nan
70053;BME280;57398;52.032;4.376;2023-04-25T11:32:20;101635.31;;;8.26;nan
70053;BME280;57398;52.032;4.376;2023-04-25T11:35:09;101628.34;;;8.63;nan
70053;BME280;57398;52.032;4.376;2023-04-25T11:37:57;101625.63;;;8.49;nan
70053;BME280;57398;52.032;4.376;2023-04-25T11:40:49;101627.78;;;8.67;nan
70053;BME280;57398;52.032;4.376;2023-04-25T11:43:37;101619.22;;;9.23;nan
70053;BME280;57398;52.032;4.376;2023-04-25T11:46:29;101602.53;;;10.35;nan
70053;BME280;57398;52.032;4.376;2023-04-25T11:49:18;101626.13;;;9.37;nan
70053;BME280;57398;52.032;4.376;2023-04-25T11:52:11;101633.72;;;8.25;nan
70053;BME280;57398;52.032;4.376;2023-04-25T11:54:59;101637.09;;;7.89;nan
70053;BME280;57398;52.032;4.376;2023-04-25T11:57:49;101634.78;;;7.64;nan
70053;BME280;57398;52.032;4.376;2023-04-25T12:00:41;101631.66;;;7.69;nan
70053;BME280;57398;52.032;4.376;2023-04-25T12:03:45;101636.41;;;8.74;nan
70053;BME280;57398;52.032;4.376;2023-04-25T12:06:36;101635.63;;;8.52;nan
70053;BME280;57398;52.032;4.376;2023-04-25T12:09:29;101640.22;;;8.78;nan
70053;BME280;57398;52.032;4.376;2023-04-25T12:12:17;101633.97;;;8.30;nan
70053;BME280;57398;52.032;4.376;2023-04-25T12:15:10;101635.47;;;7.88;nan
70053;BME280;57398;52.032;4.376;2023-04-25T12:18:01;101649.13;;;7.82;nan
70053;BME280;57398;52.032;4.376;2023-04-25T12:20:50;101643.59;;;7.40;nan
70053;BME280;57398;52.032;4.376;2023-04-25T12:23:41;101630.25;;;7.51;nan
70053;BME280;57398;52.032;4.376;2023-04-25T12:26:51;101649.66;;;8.28;nan
70053;BME280;57398;52.032;4.376;2023-04-25T12:29:39;101644.06;;;8.83;nan
70053;BME280;57398;52.032;4.376;2023-04-25T12:32:35;101650.91;;;8.69;nan
70053;BME280;57398;52.032;4.376;2023-04-25T12:35:24;101638.13;;;8.09;nan
70053;BME280;57398;52.032;4.376;2023-04-25T12:38:20;101651.78;;;8.03;nan
70053;BME280;57398;52.032;4.376;2023-04-25T12:41:10;101651.50;;;8.92;nan
70053;BME280;57398;52.032;4.376;2023-04-25T12:43:59;101648.97;;;8.99;nan
70053;BME280;57398;52.032;4.376;2023-04-25T12:46:47;101650.13;;;8.17;nan
70053;BME280;57398;52.032;4.376;2023-04-25T12:49:36;101669.03;;;8.69;nan
70053;BME280;57398;52.032;4.376;2023-04-25T12:52:25;101665.38;;;8.27;nan
70053;BME280;57398;52.032;4.376;2023-04-25T12:55:13;101655.72;;;8.72;nan
70053;BME280;57398;52.032;4.376;2023-04-25T12:58:03;101664.47;;;8.92;nan
70053;BME280;57398;52.032;4.376;2023-04-25T13:00:51;101664.41;;;8.64;nan
70053;BME280;57398;52.032;4.376;2023-04-25T13:03:40;101660.97;;;8.57;nan
70053;BME280;57398;52.032;4.376;2023-04-25T13:06:28;101660.97;;;9.07;nan
70053;BME280;57398;52.032;4.376;2023-04-25T13:09:17;101654.53;;;8.96;nan
70053;BME280;57398;52.032;4.376;2023-04-25T13:12:05;101653.56;;;9.60;nan
70053;BME280;57398;52.032;4.376;2023-04-25T13:14:55;101661.63;;;9.43;nan
70053;BME280;57398;52.032;4.376;2023-04-25T13:17:43;101672.50;;;8.76;nan
70053;BME280;57398;52.032;4.376;2023-04-25T13:20:32;101675.47;;;9.51;nan
70053;BME280;57398;52.032;4.376;2023-04-25T13:23:20;101673.00;;;8.13;nan
70053;BME280;57398;52.032;4.376;2023-04-25T13:26:08;101672.47;;;8.18;nan
70053;BME280;57398;52.032;4.376;2023-04-25T13:28:57;101681.13;;;8.62;nan
70053;BME280;57398;52.032;4.376;2023-04-25T13:31:46;101682.06;;;8.39;nan
70053;BME280;57398;52.032;4.376;2023-04-25T13:34:34;101685.00;;;8.36;nan
70053;BME280;57398;52.032;4.376;2023-04-25T13:37:22;101683.69;;;8.40;nan
70053;BME280;57398;52.032;4.376;2023-04-25T13:40:11;101686.16;;;8.48;nan
70053;BME280;57398;52.032;4.376;2023-04-25T13:43:02;101681.72;;;8.27;nan
70053;BME280;57398;52.032;4.376;2023-04-25T13:45:50;101681.09;;;9.05;nan
70053;BME280;57398;52.032;4.376;2023-04-25T13:48:40;101677.72;;;8.83;nan
70053;BME280;57398;52.032;4.376;2023-04-25T13:51:34;101686.38;;;8.68;nan
70053;BME280;57398;52.032;4.376;2023-04-25T13:54:22;101684.28;;;9.28;nan
70053;BME280;57398;52.032;4.376;2023-04-25T13:57:10;101685.97;;;8.93;nan
70053;BME280;57398;52.032;4.376;2023-04-25T13:59:59;101673.22;;;8.91;nan
70053;BME280;57398;52.032;4.376;2023-04-25T14:02:51;101677.44;;;9.20;nan
70053;BME280;57398;52.032;4.376;2023-04-25T14:05:41;101670.13;;;9.59;nan
70053;BME280;57398;52.032;4.376;2023-04-25T14:08:30;101685.53;;;9.32;nan
70053;BME280;57398;52.032;4.376;2023-04-25T14:11:18;101675.94;;;8.62;nan
70053;BME280;57398;52.032;4.376;2023-04-25T14:14:06;101687.63;;;8.06;nan
70053;BME280;57398;52.032;4.376;2023-04-25T14:16:54;101681.06;;;8.55;nan
70053;BME280;57398;52.032;4.376;2023-04-25T14:19:43;101682.38;;;9.15;nan
70053;BME280;57398;52.032;4.376;2023-04-25T14:22:36;101685.72;;;9.09;nan
70053;BME280;57398;52.032;4.376;2023-04-25T14:25:29;101681.69;;;8.78;nan
70053;BME280;57398;52.032;4.376;2023-04-25T14:28:17;101687.53;;;8.66;nan
70053;BME280;57398;52.032;4.376;2023-04-25T14:31:05;101680.84;;;8.56;nan
70053;BME280;57398;52.032;4.376;2023-04-25T14:33:54;101689.41;;;8.06;nan
70053;BME280;57398;52.032;4.376;2023-04-25T14:36:45;101689.00;;;8.02;nan
70053;BME280;57398;52.032;4.376;2023-04-25T14:39:37;101688.44;;;7.92;nan
70053;BME280;57398;52.032;4.376;2023-04-25T14:42:25;101696.84;;;7.94;nan
70053;BME280;57398;52.032;4.376;2023-04-25T14:45:17;101701.34;;;8.22;nan
70053;BME280;57398;52.032;4.376;2023-04-25T14:48:05;101727.91;;;7.41;nan
70053;BME280;57398;52.032;4.376;2023-04-25T14:50:53;101728.22;;;7.76;nan
70053;BME280;57398;52.032;4.376;2023-04-25T14:53:42;101716.09;;;8.06;nan
70053;BME280;57398;52.032;4.376;2023-04-25T14:56:31;101707.63;;;8.12;nan
70053;BME280;57398;52.032;4.376;2023-04-25T14:59:19;101701.41;;;9.01;nan
70053;BME280;57398;52.032;4.376;2023-04-25T15:02:08;101701.72;;;8.18;nan
70053;BME280;57398;52.032;4.376;2023-04-25T15:04:56;101706.56;;;8.07;nan
70053;BME280;57398;52.032;4.376;2023-04-25T15:07:44;101703.88;;;7.85;nan
70053;BME280;57398;52.032;4.376;2023-04-25T15:10:34;101692.38;;;8.54;nan
70053;BME280;57398;52.032;4.376;2023-04-25T15:13:24;101694.38;;;8.95;nan
70053;BME280;57398;52.032;4.376;2023-04-25T15:16:12;101700.97;;;8.54;nan
70053;BME280;57398;52.032;4.376;2023-04-25T15:19:00;101703.25;;;7.68;nan
70053;BME280;57398;52.032;4.376;2023-04-25T15:21:50;101706.03;;;8.11;nan